Lacombe, Canada
Current Conditions -  °F | °C
As of 9:00 PM on Friday 24 Oct 2014 (Local Time) from CYQF Reporting Station
Few Clouds Few Clouds  
Wind Chill: 27°   Ceiling: Unl
Heat Index: 34°   Visibility: 15mi
Dew Point: 27°   Wind: 8mph
Humidity: 75%   Direction: 230°SW
Pressure: 29.98"   Gusts: NA
Location:  52.47°N, 113.73°W
Report Text: CYQF 250300Z 23007KT 15SM FEW100 01/M03 A2998 RMK AC1 SLP190
Loading
Personal Weather Stations






























Interactive Weather Map
Tropical Storm Tracking
New forecast layout! Learn more

10-Day Weather Forecast

Advertisements
Track Severe Weather on mobile